sensor_id;sensor_type;location;lat;lon;timestamp;pressure;altitude;pressure_sealevel;temperature;humidity
29371;BME280;16357;52.188;7.838;2022-12-18T00:01:34;102244.63;;;-5.82;59.59
29371;BME280;16357;52.188;7.838;2022-12-18T00:04:06;102234.16;;;-5.85;60.00
29371;BME280;16357;52.188;7.838;2022-12-18T00:06:35;102235.94;;;-5.88;59.62
29371;BME280;16357;52.188;7.838;2022-12-18T00:09:02;102236.84;;;-5.89;59.91
29371;BME280;16357;52.188;7.838;2022-12-18T00:11:30;102229.00;;;-5.91;59.84
29371;BME280;16357;52.188;7.838;2022-12-18T00:13:58;102233.38;;;-5.93;60.06
29371;BME280;16357;52.188;7.838;2022-12-18T00:16:26;102234.31;;;-5.94;59.82
29371;BME280;16357;52.188;7.838;2022-12-18T00:18:55;102242.13;;;-5.94;60.62
29371;BME280;16357;52.188;7.838;2022-12-18T00:21:25;102242.13;;;-5.96;60.04
29371;BME280;16357;52.188;7.838;2022-12-18T00:23:52;102232.59;;;-5.98;60.34
29371;BME280;16357;52.188;7.838;2022-12-18T00:26:20;102238.69;;;-5.99;60.54
29371;BME280;16357;52.188;7.838;2022-12-18T00:28:49;102236.97;;;-6.00;59.91
29371;BME280;16357;52.188;7.838;2022-12-18T00:31:18;102243.94;;;-6.01;60.33
29371;BME280;16357;52.188;7.838;2022-12-18T00:33:45;102237.88;;;-6.03;59.86
29371;BME280;16357;52.188;7.838;2022-12-18T00:36:15;102243.09;;;-6.04;59.83
29371;BME280;16357;52.188;7.838;2022-12-18T00:38:43;102233.53;;;-6.05;60.42
29371;BME280;16357;52.188;7.838;2022-12-18T00:41:12;102233.53;;;-6.07;60.28
29371;BME280;16357;52.188;7.838;2022-12-18T00:43:39;102227.47;;;-6.07;59.92
29371;BME280;16357;52.188;7.838;2022-12-18T00:46:06;102234.44;;;-6.08;60.67
29371;BME280;16357;52.188;7.838;2022-12-18T00:48:33;102227.47;;;-6.09;59.90
29371;BME280;16357;52.188;7.838;2022-12-18T00:50:59;102224.84;;;-6.09;59.95
29371;BME280;16357;52.188;7.838;2022-12-18T00:53:26;102215.28;;;-6.10;59.54
29371;BME280;16357;52.188;7.838;2022-12-18T00:55:52;102217.03;;;-6.10;60.18
29371;BME280;16357;52.188;7.838;2022-12-18T00:58:18;102216.16;;;-6.11;60.11
29371;BME280;16357;52.188;7.838;2022-12-18T01:00:45;102223.13;;;-6.11;60.32
29371;BME280;16357;52.188;7.838;2022-12-18T01:03:14;102221.41;;;-6.12;60.30
29371;BME280;16357;52.188;7.838;2022-12-18T01:05:41;102223.16;;;-6.14;60.14
29371;BME280;16357;52.188;7.838;2022-12-18T01:08:07;102226.66;;;-6.15;60.46
29371;BME280;16357;52.188;7.838;2022-12-18T01:10:34;102237.09;;;-6.15;60.40
29371;BME280;16357;52.188;7.838;2022-12-18T01:13:00;102230.13;;;-6.16;60.55
29371;BME280;16357;52.188;7.838;2022-12-18T01:15:26;102229.28;;;-6.17;60.21
29371;BME280;16357;52.188;7.838;2022-12-18T01:17:53;102224.06;;;-6.17;61.04
29371;BME280;16357;52.188;7.838;2022-12-18T01:20:20;102218.81;;;-6.17;60.68
29371;BME280;16357;52.188;7.838;2022-12-18T01:22:46;102217.97;;;-6.18;60.70
29371;BME280;16357;52.188;7.838;2022-12-18T01:25:13;102216.25;;;-6.19;60.57
29371;BME280;16357;52.188;7.838;2022-12-18T01:27:39;102213.59;;;-6.17;60.70
29371;BME280;16357;52.188;7.838;2022-12-18T01:30:06;102214.47;;;-6.16;60.89
29371;BME280;16357;52.188;7.838;2022-12-18T01:32:33;102225.81;;;-6.16;60.93
29371;BME280;16357;52.188;7.838;2022-12-18T01:34:59;102225.78;;;-6.14;61.03
29371;BME280;16357;52.188;7.838;2022-12-18T01:37:25;102233.59;;;-6.14;61.52
29371;BME280;16357;52.188;7.838;2022-12-18T01:39:52;102217.94;;;-6.13;61.28
29371;BME280;16357;52.188;7.838;2022-12-18T01:42:20;102222.25;;;-6.12;61.62
29371;BME280;16357;52.188;7.838;2022-12-18T01:45:03;102229.22;;;-6.09;61.52
29371;BME280;16357;52.188;7.838;2022-12-18T01:47:34;102225.69;;;-6.08;61.30
29371;BME280;16357;52.188;7.838;2022-12-18T01:50:08;102226.56;;;-6.06;61.11
29371;BME280;16357;52.188;7.838;2022-12-18T01:52:40;102230.94;;;-6.05;61.63
29371;BME280;16357;52.188;7.838;2022-12-18T01:55:09;102232.66;;;-6.04;61.56
29371;BME280;16357;52.188;7.838;2022-12-18T01:57:36;102239.59;;;-6.03;61.42
29371;BME280;16357;52.188;7.838;2022-12-18T02:00:10;102243.97;;;-6.02;61.83
29371;BME280;16357;52.188;7.838;2022-12-18T02:02:37;102243.94;;;-6.01;61.34
29371;BME280;16357;52.188;7.838;2022-12-18T02:05:04;102242.19;;;-6.00;61.77
29371;BME280;16357;52.188;7.838;2022-12-18T02:10:20;102239.56;;;-5.97;61.86
29371;BME280;16357;52.188;7.838;2022-12-18T02:12:59;102241.28;;;-5.94;61.83
29371;BME280;16357;52.188;7.838;2022-12-18T02:18:05;102229.00;;;-5.91;61.80
29371;BME280;16357;52.188;7.838;2022-12-18T02:28:35;102228.06;;;-5.84;62.18
29371;BME280;16357;52.188;7.838;2022-12-18T02:31:06;102220.19;;;-5.81;62.29
29371;BME280;16357;52.188;7.838;2022-12-18T02:33:36;102214.97;;;-5.79;62.28
29371;BME280;16357;52.188;7.838;2022-12-18T02:36:04;102212.31;;;-5.78;62.29
29371;BME280;16357;52.188;7.838;2022-12-18T02:38:31;102214.03;;;-5.77;62.31
29371;BME280;16357;52.188;7.838;2022-12-18T02:41:00;102215.78;;;-5.76;62.39
29371;BME280;16357;52.188;7.838;2022-12-18T02:43:26;102207.91;;;-5.74;62.02
29371;BME280;16357;52.188;7.838;2022-12-18T02:45:58;102205.34;;;-5.76;62.08
29371;BME280;16357;52.188;7.838;2022-12-18T02:48:29;102206.19;;;-5.75;62.57
29371;BME280;16357;52.188;7.838;2022-12-18T02:51:06;102205.34;;;-5.76;61.96
29371;BME280;16357;52.188;7.838;2022-12-18T02:53:43;102205.34;;;-5.76;62.00
29371;BME280;16357;52.188;7.838;2022-12-18T02:56:21;102212.28;;;-5.75;62.52
29371;BME280;16357;52.188;7.838;2022-12-18T02:58:59;102209.66;;;-5.73;62.89
29371;BME280;16357;52.188;7.838;2022-12-18T03:04:12;102212.25;;;-5.68;62.73
29371;BME280;16357;52.188;7.838;2022-12-18T03:06:42;102203.50;;;-5.66;62.52
29371;BME280;16357;52.188;7.838;2022-12-18T03:09:15;102202.59;;;-5.63;62.52
29371;BME280;16357;52.188;7.838;2022-12-18T03:11:48;102201.66;;;-5.59;62.73
29371;BME280;16357;52.188;7.838;2022-12-18T03:14:37;102200.78;;;-5.57;62.63
29371;BME280;16357;52.188;7.838;2022-12-18T03:17:08;102208.59;;;-5.55;63.11
29371;BME280;16357;52.188;7.838;2022-12-18T03:19:40;102206.81;;;-5.53;62.99
29371;BME280;16357;52.188;7.838;2022-12-18T03:22:07;102205.97;;;-5.52;62.60
29371;BME280;16357;52.188;7.838;2022-12-18T03:24:36;102212.03;;;-5.50;62.28
29371;BME280;16357;52.188;7.838;2022-12-18T03:27:09;102207.66;;;-5.49;62.40
29371;BME280;16357;52.188;7.838;2022-12-18T03:29:44;102206.78;;;-5.48;62.87
29371;BME280;16357;52.188;7.838;2022-12-18T03:32:23;102210.25;;;-5.48;62.41
29371;BME280;16357;52.188;7.838;2022-12-18T03:34:53;102210.25;;;-5.46;62.76
29371;BME280;16357;52.188;7.838;2022-12-18T03:37:25;102215.47;;;-5.45;62.50
29371;BME280;16357;52.188;7.838;2022-12-18T03:39:51;102210.25;;;-5.45;62.68
29371;BME280;16357;52.188;7.838;2022-12-18T03:42:28;102206.72;;;-5.45;62.84
29371;BME280;16357;52.188;7.838;2022-12-18T03:53:17;102204.06;;;-5.41;63.43
29371;BME280;16357;52.188;7.838;2022-12-18T03:55:47;102211.91;;;-5.39;62.51
29371;BME280;16357;52.188;7.838;2022-12-18T03:58:17;102209.25;;;-5.38;62.46
29371;BME280;16357;52.188;7.838;2022-12-18T04:00:46;102199.66;;;-5.37;63.12
29371;BME280;16357;52.188;7.838;2022-12-18T04:03:16;102195.31;;;-5.37;62.92
29371;BME280;16357;52.188;7.838;2022-12-18T04:05:43;102204.03;;;-5.36;63.08
29371;BME280;16357;52.188;7.838;2022-12-18T04:08:10;102201.38;;;-5.35;63.19
29371;BME280;16357;52.188;7.838;2022-12-18T04:10:36;102203.13;;;-5.34;63.17
29371;BME280;16357;52.188;7.838;2022-12-18T04:13:03;102194.38;;;-5.33;63.41
29371;BME280;16357;52.188;7.838;2022-12-18T04:15:32;102192.63;;;-5.31;63.33
29371;BME280;16357;52.188;7.838;2022-12-18T04:18:00;102201.31;;;-5.30;63.23
29371;BME280;16357;52.188;7.838;2022-12-18T04:20:27;102210.03;;;-5.28;63.35
29371;BME280;16357;52.188;7.838;2022-12-18T04:22:54;102210.88;;;-5.27;63.28
29371;BME280;16357;52.188;7.838;2022-12-18T04:25:20;102197.81;;;-5.26;63.31
29371;BME280;16357;52.188;7.838;2022-12-18T04:27:47;102197.81;;;-5.26;62.70
29371;BME280;16357;52.188;7.838;2022-12-18T04:30:13;102198.66;;;-5.25;63.79
29371;BME280;16357;52.188;7.838;2022-12-18T04:32:39;102199.50;;;-5.23;63.31
29371;BME280;16357;52.188;7.838;2022-12-18T04:35:06;102196.00;;;-5.22;63.95
29371;BME280;16357;52.188;7.838;2022-12-18T04:37:36;102195.97;;;-5.19;63.57
29371;BME280;16357;52.188;7.838;2022-12-18T04:40:03;102191.56;;;-5.17;63.70
29371;BME280;16357;52.188;7.838;2022-12-18T04:42:29;102193.28;;;-5.15;63.76
29371;BME280;16357;52.188;7.838;2022-12-18T04:44:55;102193.28;;;-5.13;63.46
29371;BME280;16357;52.188;7.838;2022-12-18T04:47:22;102188.00;;;-5.10;63.74
29371;BME280;16357;52.188;7.838;2022-12-18T04:49:48;102176.63;;;-5.08;64.21
29371;BME280;16357;52.188;7.838;2022-12-18T04:52:14;102178.31;;;-5.03;64.42
29371;BME280;16357;52.188;7.838;2022-12-18T04:54:41;102176.53;;;-5.00;64.53
29371;BME280;16357;52.188;7.838;2022-12-18T04:57:07;102186.03;;;-4.94;63.99
29371;BME280;16357;52.188;7.838;2022-12-18T04:59:33;102176.41;;;-4.92;64.38
29371;BME280;16357;52.188;7.838;2022-12-18T05:02:00;102182.47;;;-4.89;63.98
29371;BME280;16357;52.188;7.838;2022-12-18T05:04:26;102180.66;;;-4.85;64.26
29371;BME280;16357;52.188;7.838;2022-12-18T05:06:53;102186.72;;;-4.81;64.32
29371;BME280;16357;52.188;7.838;2022-12-18T05:09:20;102187.53;;;-4.78;64.27
29371;BME280;16357;52.188;7.838;2022-12-18T05:11:46;102177.88;;;-4.74;64.17
29371;BME280;16357;52.188;7.838;2022-12-18T05:14:13;102184.81;;;-4.70;64.09
29371;BME280;16357;52.188;7.838;2022-12-18T05:16:39;102190.00;;;-4.67;64.53
29371;BME280;16357;52.188;7.838;2022-12-18T05:19:06;102185.56;;;-4.64;64.66
29371;BME280;16357;52.188;7.838;2022-12-18T05:21:32;102182.94;;;-4.60;64.42
29371;BME280;16357;52.188;7.838;2022-12-18T05:23:58;102182.81;;;-4.56;64.44
29371;BME280;16357;52.188;7.838;2022-12-18T05:26:25;102184.56;;;-4.55;64.36
29371;BME280;16357;52.188;7.838;2022-12-18T05:28:51;102179.28;;;-4.52;63.96
29371;BME280;16357;52.188;7.838;2022-12-18T05:31:18;102179.22;;;-4.49;64.38
29371;BME280;16357;52.188;7.838;2022-12-18T05:33:44;102173.09;;;-4.46;64.53
29371;BME280;16357;52.188;7.838;2022-12-18T05:36:11;102175.69;;;-4.45;64.44
29371;BME280;16357;52.188;7.838;2022-12-18T05:38:38;102174.78;;;-4.42;64.24
29371;BME280;16357;52.188;7.838;2022-12-18T05:41:05;102173.88;;;-4.41;63.65
29371;BME280;16357;52.188;7.838;2022-12-18T05:43:34;102168.63;;;-4.39;63.66
29371;BME280;16357;52.188;7.838;2022-12-18T05:46:05;102181.66;;;-4.38;63.84
29371;BME280;16357;52.188;7.838;2022-12-18T05:48:32;102184.28;;;-4.38;63.88
29371;BME280;16357;52.188;7.838;2022-12-18T05:51:04;102194.75;;;-4.36;63.94
29371;BME280;16357;52.188;7.838;2022-12-18T05:53:31;102197.38;;;-4.36;64.16
29371;BME280;16357;52.188;7.838;2022-12-18T05:56:03;102201.72;;;-4.35;63.75
29371;BME280;16357;52.188;7.838;2022-12-18T05:58:31;102208.69;;;-4.34;63.94
29371;BME280;16357;52.188;7.838;2022-12-18T06:00:57;102211.31;;;-4.34;64.21
29371;BME280;16357;52.188;7.838;2022-12-18T06:03:24;102212.19;;;-4.35;63.83
29371;BME280;16357;52.188;7.838;2022-12-18T06:05:58;102211.31;;;-4.34;63.72
29371;BME280;16357;52.188;7.838;2022-12-18T06:08:25;102212.19;;;-4.35;63.30
29371;BME280;16357;52.188;7.838;2022-12-18T06:10:52;102205.25;;;-4.38;63.41
29371;BME280;16357;52.188;7.838;2022-12-18T06:13:19;102219.25;;;-4.39;63.49
29371;BME280;16357;52.188;7.838;2022-12-18T06:15:46;102217.53;;;-4.42;63.15
29371;BME280;16357;52.188;7.838;2022-12-18T06:18:12;102209.69;;;-4.43;63.51
29371;BME280;16357;52.188;7.838;2022-12-18T06:20:38;102205.38;;;-4.46;62.91
29371;BME280;16357;52.188;7.838;2022-12-18T06:23:07;102209.75;;;-4.48;63.24
29371;BME280;16357;52.188;7.838;2022-12-18T06:25:37;102213.28;;;-4.49;63.17
29371;BME280;16357;52.188;7.838;2022-12-18T06:28:04;102219.41;;;-4.50;63.01
29371;BME280;16357;52.188;7.838;2022-12-18T06:30:30;102223.81;;;-4.52;63.43
29371;BME280;16357;52.188;7.838;2022-12-18T06:32:57;102235.19;;;-4.53;63.78
29371;BME280;16357;52.188;7.838;2022-12-18T06:35:23;102236.03;;;-4.54;63.73
29371;BME280;16357;52.188;7.838;2022-12-18T06:37:50;102228.19;;;-4.54;63.55
29371;BME280;16357;52.188;7.838;2022-12-18T06:40:19;102228.19;;;-4.54;63.67
29371;BME280;16357;52.188;7.838;2022-12-18T06:42:46;102232.56;;;-4.54;63.89
29371;BME280;16357;52.188;7.838;2022-12-18T06:45:15;102229.94;;;-4.54;63.59
29371;BME280;16357;52.188;7.838;2022-12-18T06:47:42;102238.66;;;-4.54;63.81
29371;BME280;16357;52.188;7.838;2022-12-18T06:50:08;102241.28;;;-4.54;63.88
29371;BME280;16357;52.188;7.838;2022-12-18T06:52:35;102238.66;;;-4.54;63.75
29371;BME280;16357;52.188;7.838;2022-12-18T06:55:01;102242.16;;;-4.53;63.92
29371;BME280;16357;52.188;7.838;2022-12-18T06:57:28;102243.91;;;-4.54;64.00
29371;BME280;16357;52.188;7.838;2022-12-18T06:59:54;102236.91;;;-4.52;63.87
29371;BME280;16357;52.188;7.838;2022-12-18T07:02:21;102234.28;;;-4.53;64.37
29371;BME280;16357;52.188;7.838;2022-12-18T07:04:50;102230.81;;;-4.52;63.71
29371;BME280;16357;52.188;7.838;2022-12-18T07:07:17;102233.38;;;-4.51;63.97
29371;BME280;16357;52.188;7.838;2022-12-18T07:09:43;102220.28;;;-4.51;63.90
29371;BME280;16357;52.188;7.838;2022-12-18T07:12:09;102215.91;;;-4.50;63.72
29371;BME280;16357;52.188;7.838;2022-12-18T07:14:36;102219.41;;;-4.50;64.02
29371;BME280;16357;52.188;7.838;2022-12-18T07:17:02;102221.13;;;-4.49;63.86
29371;BME280;16357;52.188;7.838;2022-12-18T07:19:29;102215.91;;;-4.49;64.08
29371;BME280;16357;52.188;7.838;2022-12-18T07:21:56;102212.38;;;-4.48;64.08
29371;BME280;16357;52.188;7.838;2022-12-18T07:24:22;102219.38;;;-4.47;64.05
29371;BME280;16357;52.188;7.838;2022-12-18T07:26:49;102210.66;;;-4.47;64.03
29371;BME280;16357;52.188;7.838;2022-12-18T07:29:15;102218.50;;;-4.47;63.88
29371;BME280;16357;52.188;7.838;2022-12-18T07:31:41;102209.75;;;-4.46;64.06
29371;BME280;16357;52.188;7.838;2022-12-18T07:34:13;102217.59;;;-4.45;64.29
29371;BME280;16357;52.188;7.838;2022-12-18T07:36:39;102211.44;;;-4.44;64.34
29371;BME280;16357;52.188;7.838;2022-12-18T07:39:06;102207.06;;;-4.42;64.27
29371;BME280;16357;52.188;7.838;2022-12-18T07:41:32;102200.91;;;-4.41;64.66
29371;BME280;16357;52.188;7.838;2022-12-18T07:43:59;102208.72;;;-4.37;64.05
29371;BME280;16357;52.188;7.838;2022-12-18T07:46:25;102208.69;;;-4.34;64.26
29371;BME280;16357;52.188;7.838;2022-12-18T07:48:51;102203.41;;;-4.31;64.77
29371;BME280;16357;52.188;7.838;2022-12-18T07:51:18;102201.56;;;-4.26;64.66
29371;BME280;16357;52.188;7.838;2022-12-18T07:53:48;102191.91;;;-4.23;64.94
29371;BME280;16357;52.188;7.838;2022-12-18T07:56:18;102185.69;;;-4.17;65.17
29371;BME280;16357;52.188;7.838;2022-12-18T07:58:55;102187.31;;;-4.10;65.30
29371;BME280;16357;52.188;7.838;2022-12-18T08:01:22;102185.47;;;-4.05;65.45
29371;BME280;16357;52.188;7.838;2022-12-18T08:03:49;102174.88;;;-3.99;65.32
29371;BME280;16357;52.188;7.838;2022-12-18T08:06:17;102171.25;;;-3.91;65.39
29371;BME280;16357;52.188;7.838;2022-12-18T08:08:44;102169.34;;;-3.83;65.33
29371;BME280;16357;52.188;7.838;2022-12-18T08:11:11;102165.72;;;-3.76;65.42
29371;BME280;16357;52.188;7.838;2022-12-18T08:13:37;102170.78;;;-3.67;65.88
29371;BME280;16357;52.188;7.838;2022-12-18T08:16:06;102161.84;;;-3.57;65.69
29371;BME280;16357;52.188;7.838;2022-12-18T08:18:34;102159.03;;;-3.47;65.97
29371;BME280;16357;52.188;7.838;2022-12-18T08:21:14;102174.56;;;-3.37;66.18
29371;BME280;16357;52.188;7.838;2022-12-18T08:23:41;102180.47;;;-3.27;66.44
29371;BME280;16357;52.188;7.838;2022-12-18T08:26:09;102186.38;;;-3.16;65.31
29371;BME280;16357;52.188;7.838;2022-12-18T08:28:37;102187.88;;;-3.05;66.57
29371;BME280;16357;52.188;7.838;2022-12-18T08:31:04;102188.50;;;-2.94;65.70
29371;BME280;16357;52.188;7.838;2022-12-18T08:33:31;102196.16;;;-2.83;66.01
29371;BME280;16357;52.188;7.838;2022-12-18T08:36:01;102195.91;;;-2.74;66.26
29371;BME280;16357;52.188;7.838;2022-12-18T08:38:28;102192.19;;;-2.64;65.76
29371;BME280;16357;52.188;7.838;2022-12-18T08:41:01;102198.97;;;-2.54;66.03
29371;BME280;16357;52.188;7.838;2022-12-18T08:43:28;102197.88;;;-2.45;65.25
29371;BME280;16357;52.188;7.838;2022-12-18T08:46:17;102180.97;;;-2.35;65.50
29371;BME280;16357;52.188;7.838;2022-12-18T08:48:44;102174.66;;;-2.26;65.32
29371;BME280;16357;52.188;7.838;2022-12-18T08:51:10;102175.31;;;-2.18;65.09
29371;BME280;16357;52.188;7.838;2022-12-18T08:53:37;102165.47;;;-2.10;65.67
29371;BME280;16357;52.188;7.838;2022-12-18T08:56:05;102162.56;;;-2.01;65.43
29371;BME280;16357;52.188;7.838;2022-12-18T08:58:31;102162.38;;;-1.93;65.48
29371;BME280;16357;52.188;7.838;2022-12-18T09:01:06;102157.72;;;-1.83;65.75
29371;BME280;16357;52.188;7.838;2022-12-18T09:03:33;102156.59;;;-1.74;65.21
29371;BME280;16357;52.188;7.838;2022-12-18T09:05:59;102147.63;;;-1.66;65.31
29371;BME280;16357;52.188;7.838;2022-12-18T09:08:26;102145.63;;;-1.58;65.27
29371;BME280;16357;52.188;7.838;2022-12-18T09:10:52;102141.88;;;-1.50;65.13
29371;BME280;16357;52.188;7.838;2022-12-18T09:13:19;102139.97;;;-1.44;64.95
29371;BME280;16357;52.188;7.838;2022-12-18T09:15:49;102146.78;;;-1.37;64.78
29371;BME280;16357;52.188;7.838;2022-12-18T09:18:17;102149.22;;;-1.30;65.06
29371;BME280;16357;52.188;7.838;2022-12-18T09:20:45;102150.78;;;-1.23;64.59
29371;BME280;16357;52.188;7.838;2022-12-18T09:23:12;102145.31;;;-1.17;64.49
29371;BME280;16357;52.188;7.838;2022-12-18T09:25:39;102160.03;;;-1.10;64.72
29371;BME280;16357;52.188;7.838;2022-12-18T09:28:14;102159.78;;;-1.02;64.43
29371;BME280;16357;52.188;7.838;2022-12-18T09:30:42;102162.97;;;-0.93;64.71
29371;BME280;16357;52.188;7.838;2022-12-18T09:33:08;102165.44;;;-0.86;64.44
29371;BME280;16357;52.188;7.838;2022-12-18T09:35:39;102161.69;;;-0.79;64.24
29371;BME280;16357;52.188;7.838;2022-12-18T09:38:08;102161.50;;;-0.73;64.58
29371;BME280;16357;52.188;7.838;2022-12-18T09:40:49;102158.63;;;-0.65;64.15
29371;BME280;16357;52.188;7.838;2022-12-18T09:43:35;102174.22;;;-0.58;63.96
29371;BME280;16357;52.188;7.838;2022-12-18T09:46:10;102177.44;;;-0.50;63.89
29371;BME280;16357;52.188;7.838;2022-12-18T09:48:41;102181.66;;;-0.44;64.19
29371;BME280;16357;52.188;7.838;2022-12-18T09:51:18;102175.28;;;-0.37;64.05
29371;BME280;16357;52.188;7.838;2022-12-18T09:53:51;102170.66;;;-0.30;64.13
29371;BME280;16357;52.188;7.838;2022-12-18T09:56:21;102170.41;;;-0.23;63.83
29371;BME280;16357;52.188;7.838;2022-12-18T09:58:57;102159.63;;;-0.16;63.52
29371;BME280;16357;52.188;7.838;2022-12-18T10:01:25;102158.50;;;-0.09;63.65
29371;BME280;16357;52.188;7.838;2022-12-18T10:04:05;102140.72;;;-0.03;63.90
29371;BME280;16357;52.188;7.838;2022-12-18T10:06:36;102124.59;;;0.05;63.77
29371;BME280;16357;52.188;7.838;2022-12-18T10:12:08;102094.03;;;0.23;63.47
29371;BME280;16357;52.188;7.838;2022-12-18T10:19:57;102089.63;;;0.47;62.88
29371;BME280;16357;52.188;7.838;2022-12-18T10:25:25;102075.09;;;0.59;62.69
29371;BME280;16357;52.188;7.838;2022-12-18T10:27:57;102092.47;;;0.64;62.70
29371;BME280;16357;52.188;7.838;2022-12-18T10:30:25;102089.59;;;0.71;62.02
29371;BME280;16357;52.188;7.838;2022-12-18T10:32:52;102093.00;;;0.74;62.32
29371;BME280;16357;52.188;7.838;2022-12-18T10:35:21;102101.59;;;0.79;62.03
29371;BME280;16357;52.188;7.838;2022-12-18T10:41:01;102095.09;;;0.88;61.54
29371;BME280;16357;52.188;7.838;2022-12-18T10:43:30;102083.53;;;0.91;61.22
29371;BME280;16357;52.188;7.838;2022-12-18T10:45:59;102069.34;;;0.93;61.05
29371;BME280;16357;52.188;7.838;2022-12-18T10:48:27;102062.28;;;0.94;61.23
29371;BME280;16357;52.188;7.838;2022-12-18T10:50:54;102062.22;;;0.95;61.35
29371;BME280;16357;52.188;7.838;2022-12-18T10:53:42;102060.31;;;0.99;61.32
29371;BME280;16357;52.188;7.838;2022-12-18T10:56:10;102051.44;;;1.00;61.33
29371;BME280;16357;52.188;7.838;2022-12-18T10:58:38;102036.41;;;1.02;61.09
29371;BME280;16357;52.188;7.838;2022-12-18T11:01:17;102024.00;;;1.04;60.91
29371;BME280;16357;52.188;7.838;2022-12-18T11:03:46;102021.22;;;1.07;61.19
29371;BME280;16357;52.188;7.838;2022-12-18T11:06:23;102033.44;;;1.09;60.84
29371;BME280;16357;52.188;7.838;2022-12-18T11:08:59;102028.97;;;1.12;61.01
29371;BME280;16357;52.188;7.838;2022-12-18T11:11:26;102035.91;;;1.14;60.93
29371;BME280;16357;52.188;7.838;2022-12-18T11:14:15;102033.97;;;1.18;61.02
29371;BME280;16357;52.188;7.838;2022-12-18T11:16:44;102032.09;;;1.21;60.96
29371;BME280;16357;52.188;7.838;2022-12-18T11:19:39;102024.88;;;1.25;60.98
29371;BME280;16357;52.188;7.838;2022-12-18T11:22:26;102024.69;;;1.29;60.73
29371;BME280;16357;52.188;7.838;2022-12-18T11:28:27;102019.81;;;1.41;60.96
29371;BME280;16357;52.188;7.838;2022-12-18T11:33:51;101993.75;;;1.52;60.31
29371;BME280;16357;52.188;7.838;2022-12-18T11:36:49;101980.28;;;1.58;60.66
29371;BME280;16357;52.188;7.838;2022-12-18T11:39:19;101980.00;;;1.64;60.33
29371;BME280;16357;52.188;7.838;2022-12-18T11:42:28;101975.28;;;1.71;60.05
29371;BME280;16357;52.188;7.838;2022-12-18T11:45:01;101977.72;;;1.75;60.03
29371;BME280;16357;52.188;7.838;2022-12-18T11:50:50;101966.59;;;1.88;60.02
29371;BME280;16357;52.188;7.838;2022-12-18T11:53:18;101961.00;;;1.94;59.56
29371;BME280;16357;52.188;7.838;2022-12-18T12:06:48;101958.16;;;2.17;58.77
29371;BME280;16357;52.188;7.838;2022-12-18T12:14:52;101943.53;;;2.28;58.36
29371;BME280;16357;52.188;7.838;2022-12-18T12:20:36;101948.53;;;2.34;58.58
29371;BME280;16357;52.188;7.838;2022-12-18T12:25:47;101942.19;;;2.38;58.17
29371;BME280;16357;52.188;7.838;2022-12-18T12:39:07;101931.75;;;2.52;57.92
29371;BME280;16357;52.188;7.838;2022-12-18T12:41:36;101922.91;;;2.53;57.61
29371;BME280;16357;52.188;7.838;2022-12-18T12:44:53;101904.09;;;2.58;57.49
29371;BME280;16357;52.188;7.838;2022-12-18T12:47:33;101894.22;;;2.61;57.40
29371;BME280;16357;52.188;7.838;2022-12-18T12:50:05;101894.06;;;2.64;57.08
29371;BME280;16357;52.188;7.838;2022-12-18T12:52:51;101893.91;;;2.68;57.17
29371;BME280;16357;52.188;7.838;2022-12-18T12:55:24;101887.59;;;2.70;57.18
29371;BME280;16357;52.188;7.838;2022-12-18T12:58:00;101881.28;;;2.73;56.68
29371;BME280;16357;52.188;7.838;2022-12-18T13:00:36;101882.09;;;2.75;56.73
29371;BME280;16357;52.188;7.838;2022-12-18T13:03:24;101879.28;;;2.78;56.70
29371;BME280;16357;52.188;7.838;2022-12-18T13:05:59;101880.91;;;2.80;56.93
29371;BME280;16357;52.188;7.838;2022-12-18T13:08:30;101880.84;;;2.82;56.50
29371;BME280;16357;52.188;7.838;2022-12-18T13:11:00;101868.34;;;2.84;56.15
29371;BME280;16357;52.188;7.838;2022-12-18T13:13:51;101869.06;;;2.88;56.29
29371;BME280;16357;52.188;7.838;2022-12-18T13:16:20;101862.75;;;2.90;55.94
29371;BME280;16357;52.188;7.838;2022-12-18T13:18:53;101860.84;;;2.92;55.99
29371;BME280;16357;52.188;7.838;2022-12-18T13:21:24;101847.59;;;2.92;56.19
29371;BME280;16357;52.188;7.838;2022-12-18T13:23:54;101847.47;;;2.95;55.83
29371;BME280;16357;52.188;7.838;2022-12-18T13:28:56;101841.91;;;3.00;54.93
29371;BME280;16357;52.188;7.838;2022-12-18T13:36:53;101830.16;;;3.05;55.38
29371;BME280;16357;52.188;7.838;2022-12-18T13:39:21;101835.34;;;3.07;55.06
29371;BME280;16357;52.188;7.838;2022-12-18T13:47:33;101830.16;;;3.05;54.35
29371;BME280;16357;52.188;7.838;2022-12-18T13:50:03;101827.50;;;3.05;54.46
29371;BME280;16357;52.188;7.838;2022-12-18T13:52:39;101821.41;;;3.03;54.12
29371;BME280;16357;52.188;7.838;2022-12-18T13:55:14;101825.88;;;3.03;54.73
29371;BME280;16357;52.188;7.838;2022-12-18T13:57:42;101807.38;;;3.01;54.03
29371;BME280;16357;52.188;7.838;2022-12-18T14:00:24;101821.59;;;3.00;54.35
29371;BME280;16357;52.188;7.838;2022-12-18T14:02:51;101812.84;;;2.98;54.02
29371;BME280;16357;52.188;7.838;2022-12-18T14:05:26;101822.59;;;2.98;54.36
29371;BME280;16357;52.188;7.838;2022-12-18T14:07:54;101820.97;;;2.95;54.22
29371;BME280;16357;52.188;7.838;2022-12-18T14:10:22;101814.88;;;2.93;54.06
29371;BME280;16357;52.188;7.838;2022-12-18T14:13:09;101803.50;;;2.91;53.84
29371;BME280;16357;52.188;7.838;2022-12-18T14:15:46;101799.16;;;2.90;54.19
29371;BME280;16357;52.188;7.838;2022-12-18T14:20:47;101802.88;;;2.86;53.54
29371;BME280;16357;52.188;7.838;2022-12-18T14:23:47;101800.41;;;2.83;53.79
29371;BME280;16357;52.188;7.838;2022-12-18T14:26:31;101791.59;;;2.82;53.78
29371;BME280;16357;52.188;7.838;2022-12-18T14:29:10;101784.66;;;2.80;54.06
29371;BME280;16357;52.188;7.838;2022-12-18T14:31:43;101790.03;;;2.78;53.94
29371;BME280;16357;52.188;7.838;2022-12-18T14:34:16;101784.84;;;2.77;54.12
29371;BME280;16357;52.188;7.838;2022-12-18T14:36:53;101778.75;;;2.75;53.75
29371;BME280;16357;52.188;7.838;2022-12-18T14:39:21;101776.16;;;2.73;53.89
29371;BME280;16357;52.188;7.838;2022-12-18T14:41:49;101778.03;;;2.71;53.85
29371;BME280;16357;52.188;7.838;2022-12-18T14:44:16;101762.22;;;2.70;53.62
29371;BME280;16357;52.188;7.838;2022-12-18T14:46:44;101768.47;;;2.69;53.87